Indianapolis International Airport Indianapolis US
ICAO: KIND
IATA: IND
Category: Large
Scheduled Services: Yes

Elevation: 797 ft
TransAlt. 18000 ft.

Airport Communications:
APP:119.3
ATIS:134.25
CLNC DEL:128.75
DEP:119.05
GND:121.8
TERRE HAUTE RDO:122.55
INDY TWR:120.9
UNICOM:122.95

KIND Zoom In..

If Map Doesn't Load, Click Here

Runways:

(A) RW 05L length 11200 ft width 150 ft
ILS 111.75 / hdg 47

(B) RW 05R length 10000 ft width 150 ft
ILS 111.15 / hdg 47

(C) RW 14 length 7280 ft width 150 ft
ILS 110.50 / hdg 137

(D) RW 23L length 10000 ft width 150 ft
ILS 111.15 / hdg 227

(E) RW 23R length 11200 ft width 150 ft
ILS 111.75 / hdg 227

(F) RW 32 length 7280 ft width 150 ft
ILS 110.50 / hdg 317

Location; KIND
Day. 21 / Time. 12.54 Zulu
* Altimeter: 29.97
* Temperature: 24° c. 75.2°f.
* Wind from: 210° Speed 10 kn.
Dewpoint: 19° c.
Visibility: 10 Statute Miles.
Clouds: Few 8500 ft.
Clouds: Few 15000 ft.
Clouds: Scattered 25000 ft.

KIND 211254Z 21010KT 10SM FEW085 FEW150 SCT250 24/19 A2997 RMK AO2 SLP141 T02440194


Wind From 210°
Speed 10 kn.

 
 
jpsmedia.com for Web Design worldairports.se 2018   terms of use